Time;durP1;ratioP1;P1;durP2;ratioP2;P2;SDS_P1;SDS_P2;PMS_P1;PMS_P2;Temp;Humidity;BMP_temperature;BMP_pressure;BME280_temperature;BME280_humidity;BME280_pressure;Samples;Min_cycle;Max_cycle;Signal;HPM_P1;HPM_P2
2023/10/30 00:00:12;;;;;;;3.60;1.70;;;;;;;15.89;51.84;99373.53;677928;29;1211;-91
2023/10/30 00:00:34;;;;;;;3.80;1.73;;;;;;;15.83;51.79;99366.63;675602;29;1274;-91
2023/10/30 00:00:54;;;;;;;4.07;1.90;;;;;;;15.90;51.95;99372.63;677834;29;1243;-91
2023/10/30 00:01:15;;;;;;;3.70;1.90;;;;;;;15.78;52.14;99363.19;678039;29;1226;-90
2023/10/30 00:01:36;;;;;;;3.67;1.85;;;;;;;15.84;51.98;99365.72;677574;29;1229;-92
2023/10/30 00:01:57;;;;;;;3.97;1.85;;;;;;;15.90;51.87;99370.00;677926;29;1123;-91
2023/10/30 00:02:17;;;;;;;3.72;1.70;;;;;;;15.87;51.94;99381.44;677912;29;1274;-92
2023/10/30 00:02:39;;;;;;;3.63;1.70;;;;;;;15.76;52.08;99363.19;672333;29;1249;-91
2023/10/30 00:03:00;;;;;;;3.63;1.73;;;;;;;15.83;52.00;99373.63;672648;29;1428;-91
2023/10/30 00:03:21;;;;;;;4.20;2.00;;;;;;;15.87;52.06;99381.44;677921;29;1293;-90
2023/10/30 00:03:42;;;;;;;4.80;2.17;;;;;;;15.82;52.03;99380.66;672469;29;1071;-90
2023/10/30 00:04:03;;;;;;;5.72;2.13;;;;;;;15.76;52.25;99367.63;673473;29;1186;-90
2023/10/30 00:04:23;;;;;;;6.07;2.00;;;;;;;15.82;52.25;99379.78;675268;29;1226;-91
2023/10/30 00:04:44;;;;;;;5.00;1.88;;;;;;;15.79;52.26;99370.19;672790;29;1395;-91
2023/10/30 00:05:06;;;;;;;6.07;2.00;;;;;;;15.86;52.25;99387.59;680046;29;1179;-90
2023/10/30 00:05:27;;;;;;;6.20;2.00;;;;;;;15.76;52.31;99375.50;673383;29;1384;-92
2023/10/30 00:08:01;;;;;;;14.77;2.50;;;;;;;15.76;52.14;99373.72;675866;29;695;-90
2023/10/30 00:08:40;;;;;;;4.75;1.98;;;;;;;15.84;52.11;99386.78;680755;29;709;-91
2023/10/30 00:09:03;;;;;;;5.28;2.17;;;;;;;15.90;52.00;99384.03;680387;29;1287;-92
2023/10/30 00:09:24;;;;;;;4.85;2.20;;;;;;;15.78;52.15;99381.59;672215;29;1197;-89
2023/10/30 00:09:44;;;;;;;6.00;2.17;;;;;;;15.74;52.23;99386.03;672609;29;1170;-90
2023/10/30 00:10:06;;;;;;;4.97;2.00;;;;;;;15.78;52.27;99372.84;677293;29;1150;-91
2023/10/30 00:10:26;;;;;;;4.47;1.85;;;;;;;15.82;52.28;99393.81;678872;29;1352;-90
2023/10/30 00:10:47;;;;;;;3.07;1.70;;;;;;;15.83;52.00;99387.66;675204;29;1143;-90
2023/10/30 00:11:08;;;;;;;3.33;1.88;;;;;;;15.77;52.22;99385.13;671862;29;1289;-89
2023/10/30 00:11:28;;;;;;;3.50;2.00;;;;;;;15.77;52.46;99385.13;679939;29;1198;-90
2023/10/30 00:11:49;;;;;;;2.60;1.80;;;;;;;15.78;52.30;99381.59;677723;29;1112;-89
2023/10/30 00:12:10;;;;;;;2.67;1.85;;;;;;;15.82;52.25;99388.56;675349;29;1125;-91
2023/10/30 00:12:31;;;;;;;4.18;2.05;;;;;;;15.90;52.14;99397.19;675166;29;1212;-92
2023/10/30 00:12:52;;;;;;;6.13;2.40;;;;;;;15.74;52.32;99375.53;675390;29;1207;-91
2023/10/30 00:13:13;;;;;;;5.47;2.10;;;;;;;15.75;52.23;99386.91;675039;29;1363;-90
2023/10/30 00:13:33;;;;;;;5.20;2.00;;;;;;;15.83;52.29;99392.94;675093;29;1316;-91
2023/10/30 00:13:54;;;;;;;3.67;1.90;;;;;;;15.81;52.29;99386.84;672719;29;1223;-91
2023/10/30 00:14:14;;;;;;;4.73;2.07;;;;;;;15.76;52.04;99378.13;680583;29;1210;-91
2023/10/30 00:14:35;;;;;;;3.90;1.90;;;;;;;15.76;52.19;99388.66;680400;29;1343;-91
2023/10/30 00:14:57;;;;;;;4.47;1.80;;;;;;;15.76;52.12;99392.13;677925;29;1320;-91
2023/10/30 00:15:17;;;;;;;3.80;1.60;;;;;;;15.75;52.09;99394.81;675534;29;1454;-91
2023/10/30 00:15:38;;;;;;;3.83;1.80;;;;;;;15.73;52.10;99389.56;675300;29;1168;-91
2023/10/30 00:15:59;;;;;;;3.63;1.80;;;;;;;15.76;52.51;99405.28;672864;29;1252;-92
2023/10/30 00:16:20;;;;;;;3.50;1.77;;;;;;;15.75;52.30;99402.69;675407;29;1141;-91
2023/10/30 00:16:40;;;;;;;3.42;1.70;;;;;;;15.65;52.36;99395.81;672470;29;1381;-89
2023/10/30 00:17:01;;;;;;;4.50;1.90;;;;;;;15.70;52.53;99399.25;669982;29;1281;-91
2023/10/30 00:17:22;;;;;;;4.65;2.08;;;;;;;15.71;52.37;99412.41;675356;29;1303;-90
2023/10/30 00:17:42;;;;;;;4.68;1.95;;;;;;;15.74;52.51;99403.59;677836;29;1258;-92
2023/10/30 00:18:03;;;;;;;6.03;2.03;;;;;;;15.66;52.48;99405.47;672158;29;1363;-90
2023/10/30 00:18:24;;;;;;;5.80;1.95;;;;;;;15.67;52.95;99415.09;667359;29;1289;-90
2023/10/30 00:18:45;;;;;;;5.40;1.95;;;;;;;15.75;52.46;99415.84;672454;29;1903;-92
2023/10/30 00:19:06;;;;;;;3.95;1.80;;;;;;;15.81;52.51;99415.75;674616;29;1401;-88
2023/10/30 00:19:27;;;;;;;6.25;1.90;;;;;;;15.76;52.55;99412.31;669381;29;1253;-90
2023/10/30 00:19:47;;;;;;;9.02;2.10;;;;;;;15.83;52.55;99411.34;672412;29;1248;-90
2023/10/30 00:20:08;;;;;;;9.83;2.23;;;;;;;15.82;52.52;99412.22;667752;29;1173;-91
2023/10/30 00:20:29;;;;;;;7.85;2.35;;;;;;;15.81;52.42;99404.34;676481;29;1192;-91
2023/10/30 00:20:49;;;;;;;12.27;2.63;;;;;;;15.73;52.45;99415.00;677961;29;1346;-90
2023/10/30 00:21:10;;;;;;;11.07;2.40;;;;;;;15.78;52.46;99407.06;675336;29;1160;-90
2023/10/30 00:21:31;;;;;;;11.38;2.20;;;;;;;15.77;52.49;99400.91;673172;29;1179;-91
2023/10/30 00:21:51;;;;;;;3.90;1.90;;;;;;;15.83;52.21;99403.44;669803;29;1330;-86
2023/10/30 00:22:12;;;;;;;5.00;2.10;;;;;;;15.85;52.43;99398.16;672580;29;1136;-89
2023/10/30 00:22:32;;;;;;;4.57;2.20;;;;;;;15.86;52.41;99398.13;670422;29;1681;-90
2023/10/30 00:22:53;;;;;;;4.25;2.15;;;;;;;15.86;52.38;99410.44;669240;29;1609;-90
2023/10/30 00:23:13;;;;;;;2.97;1.90;;;;;;;15.85;52.45;99399.03;670074;29;1125;-92
2023/10/30 00:23:34;;;;;;;3.58;2.00;;;;;;;15.82;52.27;99401.72;677165;29;1289;-91
2023/10/30 00:23:55;;;;;;;3.65;2.00;;;;;;;15.83;52.45;99406.06;675266;29;1228;-91
2023/10/30 00:24:15;;;;;;;4.00;1.90;;;;;;;15.88;52.31;99404.22;677852;29;1248;-92
2023/10/30 00:24:37;;;;;;;3.90;1.70;;;;;;;15.83;52.12;99394.66;682945;28;1224;-91
2023/10/30 00:24:57;;;;;;;5.68;1.80;;;;;;;15.86;52.25;99400.75;672214;29;1324;-90
2023/10/30 00:25:18;;;;;;;6.10;2.00;;;;;;;15.80;52.21;99389.47;670413;29;1274;-90
2023/10/30 00:25:39;;;;;;;5.70;2.10;;;;;;;15.86;52.20;99400.75;680423;29;1541;-92
2023/10/30 00:26:00;;;;;;;5.55;2.03;;;;;;;15.93;52.13;99411.19;675121;29;1335;-90
2023/10/30 00:26:21;;;;;;;5.20;2.00;;;;;;;15.90;52.24;99393.69;674599;29;1229;-90
2023/10/30 00:26:43;;;;;;;4.53;1.90;;;;;;;15.86;51.98;99402.53;677938;29;1380;-90
2023/10/30 00:27:04;;;;;;;3.10;1.90;;;;;;;15.88;52.33;99414.75;667219;29;1245;-90
2023/10/30 00:27:25;;;;;;;3.80;1.80;;;;;;;15.85;52.17;99400.81;669721;29;1608;-90
2023/10/30 00:27:45;;;;;;;7.65;2.17;;;;;;;15.98;52.04;99396.22;672634;29;1235;-89
2023/10/30 00:28:06;;;;;;;7.10;2.10;;;;;;;15.86;52.17;99395.50;675004;29;1194;-91
2023/10/30 00:28:30;;;;;;;6.32;2.10;;;;;;;15.90;52.11;99402.47;673615;29;1387;-93
2023/10/30 00:28:51;;;;;;;3.47;1.90;;;;;;;15.89;51.99;99400.72;672759;29;1158;-91
2023/10/30 00:29:12;;;;;;;3.25;1.92;;;;;;;15.94;51.98;99412.91;677686;29;1309;-89
2023/10/30 00:29:38;;;;;;;3.85;2.00;;;;;;;15.83;52.21;99389.41;677684;29;1260;-92
2023/10/30 00:29:59;;;;;;;12.40;2.20;;;;;;;15.81;52.29;99391.22;677873;29;1331;-90
2023/10/30 00:30:19;;;;;;;13.10;2.10;;;;;;;15.89;52.14;99411.25;672497;29;1315;-90
2023/10/30 00:30:40;;;;;;;4.18;2.00;;;;;;;15.87;52.23;99405.13;670063;29;1471;-89
2023/10/30 00:31:01;;;;;;;4.20;1.90;;;;;;;15.90;52.12;99407.72;677684;29;1252;-90
2023/10/30 00:31:22;;;;;;;3.17;1.90;;;;;;;15.91;52.15;99403.31;672562;29;1330;-92
2023/10/30 00:31:43;;;;;;;4.30;1.95;;;;;;;15.92;52.11;99414.72;675580;29;1165;-87
2023/10/30 00:32:04;;;;;;;5.80;2.00;;;;;;;15.93;52.21;99401.53;674858;29;1229;-90
2023/10/30 00:32:25;;;;;;;6.70;2.10;;;;;;;15.94;52.19;99398.03;678075;29;1378;-92
2023/10/30 00:32:45;;;;;;;5.50;1.98;;;;;;;16.02;51.88;99411.03;683072;29;1174;-93
2023/10/30 00:33:06;;;;;;;7.23;2.00;;;;;;;16.01;51.86;99411.94;672486;29;1196;-92
2023/10/30 00:33:27;;;;;;;6.60;2.10;;;;;;;15.93;51.89;99398.91;680315;29;1215;-90
2023/10/30 00:33:48;;;;;;;6.70;2.08;;;;;;;15.93;51.98;99401.53;683201;28;1183;-89
2023/10/30 00:34:11;;;;;;;3.53;1.88;;;;;;;15.97;51.89;99412.88;672905;29;1265;-92
2023/10/30 00:34:32;;;;;;;3.92;1.73;;;;;;;15.91;51.80;99405.94;678139;29;1254;-92
2023/10/30 00:34:53;;;;;;;5.15;1.90;;;;;;;15.93;51.97;99408.56;680180;29;1257;-92
2023/10/30 00:35:13;;;;;;;6.45;2.28;;;;;;;15.89;52.15;99399.84;675229;29;1342;-92
2023/10/30 00:35:34;;;;;;;5.10;2.27;;;;;;;15.95;51.91;99412.91;677871;29;1198;-89
2023/10/30 00:35:55;;;;;;;4.80;2.13;;;;;;;15.88;51.86;99398.97;679786;29;1352;-88
2023/10/30 00:36:16;;;;;;;4.40;2.10;;;;;;;16.01;52.11;99414.56;677945;29;1681;-91
2023/10/30 00:36:36;;;;;;;4.15;2.00;;;;;;;15.92;52.06;99396.31;674850;29;1245;-89
2023/10/30 00:36:57;;;;;;;4.40;2.30;;;;;;;15.89;52.05;99400.72;675165;29;1113;-90
2023/10/30 00:37:18;;;;;;;3.33;1.93;;;;;;;15.87;52.21;99394.59;672644;29;1306;-90
2023/10/30 00:37:38;;;;;;;3.70;1.90;;;;;;;15.93;51.54;99403.28;677712;29;1299;-89
2023/10/30 00:37:59;;;;;;;4.03;1.80;;;;;;;16.00;51.69;99407.56;669659;29;1345;-88
2023/10/30 00:38:20;;;;;;;4.43;1.80;;;;;;;15.95;51.89;99402.38;674488;29;1344;-90
2023/10/30 00:38:40;;;;;;;4.45;1.80;;;;;;;15.94;51.92;99397.13;672525;29;1923;-91
2023/10/30 00:39:01;;;;;;;4.13;1.75;;;;;;;15.96;51.82;99406.75;672524;29;1395;-91
2023/10/30 00:39:22;;;;;;;5.63;1.95;;;;;;;15.96;51.82;99403.22;679630;29;1350;-89
2023/10/30 00:39:43;;;;;;;5.30;1.83;;;;;;;15.99;51.72;99406.69;679468;29;1201;-88
2023/10/30 00:40:05;;;;;;;6.45;1.88;;;;;;;15.99;52.17;99404.06;672432;29;1301;-89
2023/10/30 00:40:26;;;;;;;5.10;1.90;;;;;;;15.92;51.85;99398.94;677602;29;1337;-90
2023/10/30 00:40:47;;;;;;;9.10;2.20;;;;;;;16.02;51.72;99404.03;676019;29;1590;-90
2023/10/30 00:41:10;;;;;;;10.20;2.50;;;;;;;15.97;51.95;99397.09;672308;29;1305;-89
2023/10/30 00:41:31;;;;;;;13.73;2.70;;;;;;;16.04;51.80;99404.84;677438;29;1330;-91
2023/10/30 00:41:52;;;;;;;9.95;2.42;;;;;;;15.95;51.76;99393.59;674967;29;1295;-90
2023/10/30 00:42:12;;;;;;;8.60;2.00;;;;;;;16.01;51.69;99401.41;672663;29;1288;-93
2023/10/30 00:42:33;;;;;;;3.65;1.70;;;;;;;16.01;51.56;99404.03;674284;29;1222;-90
2023/10/30 00:42:54;;;;;;;3.55;1.73;;;;;;;16.00;51.75;99402.31;672493;29;1239;-90
2023/10/30 00:43:15;;;;;;;3.30;1.80;;;;;;;15.99;51.77;99397.94;672309;29;1290;-89
2023/10/30 00:43:37;;;;;;;3.50;1.90;;;;;;;16.03;51.63;99407.50;674817;29;1281;-92
2023/10/30 00:43:58;;;;;;;5.00;2.20;;;;;;;16.00;51.68;99404.94;672281;29;1266;-91
2023/10/30 00:44:18;;;;;;;5.47;2.22;;;;;;;15.96;51.74;99397.97;669853;29;1336;-90
2023/10/30 00:44:39;;;;;;;6.43;2.20;;;;;;;15.95;51.65;99388.34;674811;29;1264;-91
2023/10/30 00:45:00;;;;;;;5.10;1.90;;;;;;;15.94;51.65;99389.25;671976;29;1356;-89
2023/10/30 00:45:21;;;;;;;6.35;1.92;;;;;;;15.96;51.74;99393.59;677866;29;1110;-92
2023/10/30 00:45:42;;;;;;;7.68;2.08;;;;;;;16.02;51.68;99395.25;677553;29;1260;-90
2023/10/30 00:46:09;;;;;;;8.52;2.10;;;;;;;15.95;51.63;99385.72;680143;29;1455;-90
2023/10/30 00:46:29;;;;;;;6.70;2.10;;;;;;;15.94;51.61;99392.75;679978;29;1207;-89
2023/10/30 00:46:52;;;;;;;5.65;2.08;;;;;;;16.05;51.69;99403.09;675702;29;1221;-89
2023/10/30 00:47:13;;;;;;;6.20;2.10;;;;;;;16.09;51.68;99402.16;680191;29;1352;-90
2023/10/30 00:47:38;;;;;;;5.00;1.90;;;;;;;15.97;51.61;99373.44;676896;29;1599;-89
2023/10/30 00:47:58;;;;;;;6.00;2.10;;;;;;;15.97;51.79;99386.59;675144;29;1408;-89
2023/10/30 00:48:20;;;;;;;5.85;2.00;;;;;;;15.99;51.77;99384.78;672612;29;1417;-92
2023/10/30 00:48:41;;;;;;;5.60;2.10;;;;;;;15.98;51.73;99393.56;669639;29;1306;-89
2023/10/30 00:49:01;;;;;;;5.30;2.00;;;;;;;16.02;51.70;99401.38;672545;29;1237;-89
2023/10/30 00:49:22;;;;;;;5.32;2.10;;;;;;;15.96;51.65;99390.06;675309;29;1326;-88
2023/10/30 00:49:43;;;;;;;4.50;2.10;;;;;;;15.96;51.82;99379.56;677653;29;1310;-92
2023/10/30 00:50:07;;;;;;;4.67;2.20;;;;;;;16.04;51.57;99394.34;672395;29;1210;-91
2023/10/30 00:50:28;;;;;;;3.92;2.15;;;;;;;16.04;51.47;99393.44;675081;29;1279;-90
2023/10/30 00:50:48;;;;;;;3.60;2.00;;;;;;;16.02;51.40;99403.13;677774;29;1232;-91
2023/10/30 00:51:09;;;;;;;3.67;1.90;;;;;;;15.95;51.64;99388.34;672493;29;1150;-90
2023/10/30 00:51:30;;;;;;;2.90;1.52;;;;;;;16.00;51.55;99397.03;668306;29;1353;-90
2023/10/30 00:51:51;;;;;;;2.50;1.50;;;;;;;15.95;51.49;99389.22;672496;29;1348;-89
2023/10/30 00:52:12;;;;;;;3.35;1.58;;;;;;;15.99;51.45;99403.19;672315;29;1259;-89
2023/10/30 00:52:32;;;;;;;4.47;1.80;;;;;;;16.00;51.67;99402.31;676520;29;1191;-90
2023/10/30 00:52:53;;;;;;;5.20;2.07;;;;;;;15.96;51.61;99403.22;675144;29;1219;-91
2023/10/30 00:53:13;;;;;;;5.28;2.10;;;;;;;16.01;51.69;99415.44;672545;29;1368;-93
2023/10/30 00:53:34;;;;;;;4.80;1.95;;;;;;;16.03;51.48;99412.75;676640;29;1344;-89
2023/10/30 00:53:55;;;;;;;9.53;1.90;;;;;;;16.02;51.60;99413.66;682006;28;1254;-90
2023/10/30 00:54:15;;;;;;;10.07;1.80;;;;;;;15.94;51.63;99411.19;675365;29;1310;-91
2023/10/30 00:54:36;;;;;;;9.88;1.83;;;;;;;15.98;51.73;99414.63;667775;29;1268;-90
2023/10/30 00:59:14;;;;;;;4.13;1.92;;;;;;;16.02;51.62;99426.81;678142;29;1976;-90
2023/10/30 00:59:37;;;;;;;6.00;1.95;;;;;;;15.98;51.60;99436.53;677332;29;1328;-88
2023/10/30 00:59:59;;;;;;;5.17;1.87;;;;;;;15.99;51.63;99437.41;677678;29;1290;-92
2023/10/30 01:00:22;;;;;;;5.43;1.80;;;;;;;16.00;51.72;99428.63;672572;29;1319;-92
2023/10/30 01:00:43;;;;;;;2.95;1.70;;;;;;;15.97;51.36;99432.16;667310;29;1320;-92
2023/10/30 01:01:03;;;;;;;5.88;2.00;;;;;;;15.94;51.59;99432.22;672357;29;1176;-92
2023/10/30 01:01:25;;;;;;;5.25;1.80;;;;;;;15.88;51.78;99435.78;675422;29;1193;-91
2023/10/30 01:01:45;;;;;;;5.25;1.70;;;;;;;15.87;51.77;99423.53;677796;29;1388;-92
2023/10/30 01:02:06;;;;;;;3.20;1.70;;;;;;;15.90;51.64;99426.13;669751;29;1235;-90
2023/10/30 01:02:26;;;;;;;3.40;1.67;;;;;;;15.98;51.79;99436.53;668888;29;1242;-89
2023/10/30 01:02:47;;;;;;;5.22;1.92;;;;;;;15.91;51.54;99429.63;675049;29;1280;-91
2023/10/30 01:03:08;;;;;;;7.35;2.03;;;;;;;15.94;51.66;99439.22;674916;29;1389;-90
2023/10/30 01:03:29;;;;;;;7.68;2.40;;;;;;;15.90;51.74;99430.50;675116;29;1283;-93
2023/10/30 01:03:50;;;;;;;6.03;2.10;;;;;;;15.93;51.62;99440.13;670154;29;1202;-91
2023/10/30 01:04:11;;;;;;;4.00;2.00;;;;;;;15.92;51.76;99435.75;672262;29;1446;-90
2023/10/30 01:04:32;;;;;;;3.92;2.00;;;;;;;15.97;51.89;99450.56;674675;29;1226;-89
2023/10/30 01:04:52;;;;;;;5.13;2.30;;;;;;;16.00;51.86;99444.41;675126;29;860;-88
2023/10/30 01:05:13;;;;;;;5.10;2.40;;;;;;;15.99;51.70;99432.13;672521;29;1090;-91
2023/10/30 01:05:34;;;;;;;4.57;2.20;;;;;;;16.00;51.68;99426.84;676859;29;1177;-90
2023/10/30 01:05:59;;;;;;;3.42;1.80;;;;;;;16.01;51.53;99440.88;677411;29;1671;-90
2023/10/30 01:06:20;;;;;;;5.05;2.00;;;;;;;16.00;51.73;99437.34;672436;29;1262;-91
2023/10/30 01:06:41;;;;;;;4.95;1.90;;;;;;;15.92;51.69;99419.97;672540;29;1451;-92
2023/10/30 01:07:02;;;;;;;4.15;2.03;;;;;;;15.97;51.68;99428.69;675082;29;1426;-92
2023/10/30 01:07:24;;;;;;;3.97;1.95;;;;;;;15.95;51.61;99435.69;674922;29;1184;-90
2023/10/30 01:07:44;;;;;;;6.28;2.05;;;;;;;15.94;51.65;99428.69;677706;29;1295;-90
2023/10/30 01:08:08;;;;;;;5.95;1.85;;;;;;;16.00;51.64;99437.34;672579;29;1338;-90
2023/10/30 01:08:29;;;;;;;5.15;1.70;;;;;;;15.93;51.62;99437.50;677492;29;1325;-91
2023/10/30 01:08:50;;;;;;;2.72;1.55;;;;;;;15.91;51.82;99437.50;682564;29;1221;-90
2023/10/30 01:09:11;;;;;;;3.80;1.60;;;;;;;15.99;51.79;99454.03;679225;29;1248;-92
2023/10/30 01:09:32;;;;;;;4.25;1.70;;;;;;;15.88;51.74;99433.16;672557;29;1207;-90
2023/10/30 01:09:54;;;;;;;4.90;2.00;;;;;;;15.88;51.84;99441.03;669751;29;1383;-92
2023/10/30 01:10:15;;;;;;;3.88;2.00;;;;;;;15.85;51.96;99430.59;672555;29;1283;-90
2023/10/30 01:10:36;;;;;;;3.10;1.90;;;;;;;15.95;51.90;99451.47;666884;29;1311;-90
2023/10/30 01:10:57;;;;;;;3.85;2.00;;;;;;;15.90;51.74;99444.56;675023;29;1107;-92
2023/10/30 01:11:18;;;;;;;4.70;2.10;;;;;;;15.95;51.87;99440.97;675094;29;1187;-90
2023/10/30 01:11:38;;;;;;;5.20;2.10;;;;;;;15.98;51.65;99451.47;675161;29;1190;-91
2023/10/30 01:11:59;;;;;;;4.75;2.08;;;;;;;15.92;51.86;99439.25;677611;29;1325;-91
2023/10/30 01:12:19;;;;;;;4.33;1.93;;;;;;;15.89;51.85;99439.31;677043;29;1260;-92
2023/10/30 01:12:40;;;;;;;4.65;2.08;;;;;;;15.96;51.76;99443.56;672587;29;1198;-89
2023/10/30 01:13:01;;;;;;;5.75;2.15;;;;;;;15.95;51.64;99452.38;674857;29;1192;-92
2023/10/30 01:13:23;;;;;;;8.75;2.35;;;;;;;15.90;51.71;99441.03;676794;29;1297;-90
2023/10/30 01:13:43;;;;;;;9.15;2.50;;;;;;;15.94;51.94;99449.75;669704;29;1223;-90
2023/10/30 01:14:04;;;;;;;7.25;2.10;;;;;;;15.97;51.67;99436.56;661639;29;1228;-89
2023/10/30 01:14:25;;;;;;;4.00;1.80;;;;;;;15.89;51.74;99434.91;671194;29;1302;-90
2023/10/30 01:14:46;;;;;;;3.90;1.60;;;;;;;15.96;51.78;99454.09;682181;28;1411;-90
2023/10/30 01:15:07;;;;;;;4.70;1.98;;;;;;;15.99;51.70;99458.44;672503;29;1192;-92
2023/10/30 01:15:28;;;;;;;5.65;2.17;;;;;;;15.93;51.64;99440.13;676317;29;1225;-91
2023/10/30 01:15:53;;;;;;;6.20;2.33;;;;;;;16.01;51.72;99451.41;675428;29;1800;-89
2023/10/30 01:16:14;;;;;;;6.60;2.20;;;;;;;15.92;51.54;99435.75;680109;29;1426;-89
2023/10/30 01:16:35;;;;;;;6.63;2.00;;;;;;;15.88;51.73;99443.69;678968;29;1234;-87
2023/10/30 01:16:55;;;;;;;5.20;1.83;;;;;;;15.89;51.82;99458.59;675175;29;1232;-92
2023/10/30 01:17:16;;;;;;;4.10;1.80;;;;;;;15.86;51.93;99436.72;669957;29;1326;-91
2023/10/30 01:17:37;;;;;;;4.80;2.00;;;;;;;15.92;51.83;99446.28;669777;29;1179;-90
2023/10/30 01:17:58;;;;;;;5.53;2.00;;;;;;;15.93;52.02;99456.78;669527;29;1372;-89
2023/10/30 01:18:18;;;;;;;6.35;2.17;;;;;;;15.89;51.83;99455.97;674899;29;1159;-92
2023/10/30 01:18:40;;;;;;;5.85;2.10;;;;;;;16.00;51.81;99465.44;675013;29;1898;-92
2023/10/30 01:19:00;;;;;;;6.20;2.20;;;;;;;15.96;51.91;99453.22;677683;29;1292;-91
2023/10/30 01:19:21;;;;;;;4.97;1.90;;;;;;;15.94;51.86;99455.91;675060;29;1163;-89
2023/10/30 01:19:43;;;;;;;4.77;2.00;;;;;;;15.95;51.85;99454.13;672202;29;1292;-90
2023/10/30 01:20:04;;;;;;;4.95;2.00;;;;;;;15.93;51.76;99448.03;680163;29;1374;-92
2023/10/30 01:20:24;;;;;;;5.13;2.00;;;;;;;16.02;51.80;99463.66;669489;29;1389;-91
2023/10/30 01:20:45;;;;;;;5.07;2.05;;;;;;;16.09;51.55;99464.44;672435;29;1272;-90
2023/10/30 01:21:12;;;;;;;3.83;2.07;;;;;;;16.05;51.64;99455.72;674825;29;1242;-92
2023/10/30 01:21:34;;;;;;;4.05;2.00;;;;;;;15.95;51.67;99446.22;676504;29;1382;-91
2023/10/30 01:21:55;;;;;;;3.80;1.90;;;;;;;15.93;51.64;99451.53;677294;29;1269;-91
2023/10/30 01:22:16;;;;;;;3.50;1.92;;;;;;;15.99;51.58;99453.19;672537;29;1248;-93
2023/10/30 01:22:36;;;;;;;5.60;2.40;;;;;;;16.04;51.55;99448.69;677691;29;1374;-91
2023/10/30 01:22:57;;;;;;;5.10;2.30;;;;;;;15.97;51.59;99440.06;677419;29;1752;-90
2023/10/30 01:23:18;;;;;;;6.30;2.20;;;;;;;15.98;51.56;99446.19;672614;29;1211;-91
2023/10/30 01:23:39;;;;;;;4.75;2.00;;;;;;;15.99;51.52;99447.94;672106;29;1380;-93
2023/10/30 01:23:59;;;;;;;5.05;2.10;;;;;;;15.98;51.60;99454.09;677765;29;1373;-92
2023/10/30 01:24:20;;;;;;;4.18;2.10;;;;;;;15.94;51.64;99455.00;675218;29;1325;-92
2023/10/30 01:24:42;;;;;;;3.83;2.00;;;;;;;16.04;51.77;99461.84;669890;29;1255;-88
2023/10/30 01:25:03;;;;;;;3.65;1.73;;;;;;;16.01;51.69;99454.03;672179;29;1507;-91
2023/10/30 01:25:24;;;;;;;4.05;1.63;;;;;;;15.99;51.77;99453.19;667246;29;1299;-89
2023/10/30 01:25:47;;;;;;;4.10;1.60;;;;;;;15.99;51.63;99455.81;669515;29;1307;-88
2023/10/30 01:26:07;;;;;;;4.60;2.00;;;;;;;15.99;51.67;99454.03;667563;29;1270;-91
2023/10/30 01:26:28;;;;;;;4.00;1.90;;;;;;;15.98;51.79;99468.09;667370;29;1231;-92
2023/10/30 01:26:48;;;;;;;3.85;1.90;;;;;;;15.92;51.68;99456.81;672467;29;1242;-91
2023/10/30 01:27:09;;;;;;;3.22;1.73;;;;;;;15.93;51.93;99461.16;674968;29;1281;-91
2023/10/30 01:27:30;;;;;;;2.80;1.65;;;;;;;15.87;51.52;99439.31;676328;29;1212;-91
2023/10/30 01:27:52;;;;;;;2.42;1.70;;;;;;;15.92;52.02;99462.06;672314;29;1430;-90
2023/10/30 01:28:12;;;;;;;2.85;1.90;;;;;;;15.87;52.03;99454.25;669757;29;1364;-91
2023/10/30 01:28:34;;;;;;;3.45;2.00;;;;;;;15.90;51.95;99456.81;670255;29;1277;-91
2023/10/30 01:28:54;;;;;;;4.80;2.20;;;;;;;15.95;51.80;99460.25;671175;29;1546;-91
2023/10/30 01:29:15;;;;;;;4.00;1.90;;;;;;;15.96;51.56;99456.72;672395;29;1435;-92
2023/10/30 01:29:36;;;;;;;3.37;1.90;;;;;;;15.93;51.73;99448.03;669924;29;1515;-89
2023/10/30 01:29:56;;;;;;;3.28;1.75;;;;;;;15.94;51.78;99455.00;669156;29;1211;-89
2023/10/30 01:30:17;;;;;;;4.83;1.80;;;;;;;15.97;52.10;99454.97;674896;29;2053;-91
2023/10/30 01:30:38;;;;;;;4.90;1.75;;;;;;;15.94;51.81;99460.28;677318;29;1271;-92
2023/10/30 01:30:59;;;;;;;5.45;1.90;;;;;;;15.98;51.73;99465.47;674893;29;1221;-89
2023/10/30 01:31:21;;;;;;;7.13;2.22;;;;;;;15.95;51.73;99464.63;672270;29;1278;-91
2023/10/30 01:31:42;;;;;;;6.68;2.30;;;;;;;15.94;51.60;99449.75;675056;29;1377;-91
2023/10/30 01:32:03;;;;;;;6.00;2.10;;;;;;;15.96;51.70;99447.97;670056;29;1219;-92
2023/10/30 01:32:24;;;;;;;3.60;1.83;;;;;;;16.01;51.92;99464.56;678364;29;1833;-90
2023/10/30 01:32:45;;;;;;;3.42;1.83;;;;;;;16.06;51.76;99465.34;677053;29;1315;-91
2023/10/30 01:33:06;;;;;;;3.15;1.85;;;;;;;15.95;51.90;99452.38;672388;29;1321;-90
2023/10/30 01:33:26;;;;;;;3.60;1.95;;;;;;;15.98;51.87;99452.31;672398;29;1426;-92
2023/10/30 01:33:47;;;;;;;3.90;1.90;;;;;;;16.01;51.82;99459.28;677777;29;1198;-92
2023/10/30 01:34:08;;;;;;;4.40;2.15;;;;;;;16.02;51.83;99458.38;680378;29;1340;-91
2023/10/30 01:34:29;;;;;;;6.07;2.25;;;;;;;16.01;51.75;99452.28;680176;29;1458;-92
2023/10/30 01:34:50;;;;;;;6.47;2.13;;;;;;;16.06;51.65;99452.19;675265;29;1155;-91
2023/10/30 01:35:11;;;;;;;5.83;1.90;;;;;;;16.09;51.79;99459.19;677716;29;1079;-91
2023/10/30 01:35:32;;;;;;;5.85;1.75;;;;;;;16.03;51.63;99445.22;680239;29;1369;-92
2023/10/30 01:35:52;;;;;;;4.75;1.80;;;;;;;16.01;51.64;99449.66;675137;29;1319;-91
2023/10/30 01:36:13;;;;;;;6.55;1.70;;;;;;;16.03;51.78;99449.59;677707;29;1256;-91
2023/10/30 01:36:34;;;;;;;5.07;1.80;;;;;;;16.02;51.74;99447.88;677671;29;1185;-91
2023/10/30 01:36:55;;;;;;;6.13;2.10;;;;;;;16.08;51.62;99450.41;682738;29;1606;-87
2023/10/30 01:37:20;;;;;;;4.53;2.17;;;;;;;16.05;51.58;99453.09;677612;29;1304;-91
2023/10/30 01:37:42;;;;;;;3.67;1.95;;;;;;;16.12;51.68;99459.97;672317;29;1317;-90
2023/10/30 01:38:03;;;;;;;4.35;1.90;;;;;;;15.99;51.80;99445.28;672315;29;1296;-91
2023/10/30 01:38:23;;;;;;;4.28;1.80;;;;;;;16.04;51.73;99451.34;665097;29;1178;-90
2023/10/30 01:38:44;;;;;;;4.03;1.90;;;;;;;16.08;51.66;99447.78;667438;29;1908;-92
2023/10/30 01:39:05;;;;;;;4.00;2.20;;;;;;;16.09;51.72;99446.03;672408;29;1273;-91
2023/10/30 01:39:25;;;;;;;4.03;2.30;;;;;;;15.95;51.87;99439.22;672836;29;1268;-91
2023/10/30 01:39:46;;;;;;;4.60;2.35;;;;;;;16.05;51.72;99453.09;677823;29;1348;-91
2023/10/30 01:40:09;;;;;;;5.10;2.40;;;;;;;15.96;51.96;99450.59;671874;29;1330;-91
2023/10/30 01:40:29;;;;;;;9.30;2.40;;;;;;;15.96;51.83;99448.84;675095;29;1333;-92
2023/10/30 01:40:51;;;;;;;9.10;2.17;;;;;;;16.03;51.69;99465.38;669737;29;1247;-91
2023/10/30 01:41:12;;;;;;;7.80;1.75;;;;;;;16.02;51.74;99463.66;672516;29;1362;-91
2023/10/30 01:41:32;;;;;;;4.22;1.52;;;;;;;16.01;51.76;99464.56;674990;29;1200;-91
2023/10/30 01:41:54;;;;;;;5.63;1.67;;;;;;;15.92;51.80;99459.44;669945;29;1430;-91
2023/10/30 01:42:16;;;;;;;6.43;1.90;;;;;;;15.89;51.95;99458.59;674864;29;1238;-90
2023/10/30 01:42:37;;;;;;;4.55;1.92;;;;;;;15.92;51.91;99456.81;674175;29;1357;-91
2023/10/30 01:42:57;;;;;;;4.75;2.17;;;;;;;15.96;51.85;99442.69;674941;29;1370;-91
2023/10/30 01:43:31;;;;;;;4.40;2.10;;;;;;;15.97;51.90;99454.97;672335;29;1240;-91
2023/10/30 01:43:52;;;;;;;4.57;2.20;;;;;;;16.00;51.79;99461.03;672271;29;1350;-91
2023/10/30 01:44:13;;;;;;;4.93;2.30;;;;;;;16.00;51.95;99455.78;672414;29;1245;-91
2023/10/30 01:44:33;;;;;;;5.07;2.27;;;;;;;15.94;51.89;99444.50;677559;29;1188;-91
2023/10/30 01:44:58;;;;;;;5.63;2.05;;;;;;;16.03;51.92;99450.47;672682;29;1144;-91
2023/10/30 01:45:19;;;;;;;9.63;2.22;;;;;;;16.08;51.85;99468.81;674034;29;1393;-91
2023/10/30 01:45:40;;;;;;;10.57;2.40;;;;;;;16.02;51.79;99458.38;674670;29;1260;-92
2023/10/30 01:46:01;;;;;;;4.90;2.17;;;;;;;16.07;51.89;99459.19;672764;29;1237;-91
2023/10/30 01:46:22;;;;;;;4.53;2.10;;;;;;;16.03;51.85;99455.75;679930;29;1278;-91
2023/10/30 01:46:43;;;;;;;4.10;1.90;;;;;;;16.06;51.87;99464.47;670072;29;1528;-92
2023/10/30 01:47:04;;;;;;;4.60;2.10;;;;;;;16.06;51.88;99464.47;669886;29;1248;-92
2023/10/30 01:47:25;;;;;;;5.90;2.25;;;;;;;16.03;51.71;99458.38;679836;29;1365;-89
2023/10/30 01:47:45;;;;;;;6.03;2.30;;;;;;;16.04;51.93;99465.38;672535;29;1218;-92
2023/10/30 01:48:06;;;;;;;6.93;2.17;;;;;;;16.04;52.07;99461.84;669661;29;1237;-90
2023/10/30 01:48:30;;;;;;;5.57;1.92;;;;;;;15.99;52.07;99458.44;667413;29;1311;-91
2023/10/30 01:48:52;;;;;;;4.97;1.70;;;;;;;16.08;51.94;99470.56;677613;29;1481;-91